Hauptseite
METAR-TAF:

METAR-TAF

Flughäfen :

Flughafen Sylt

Westerland, Deutschland

Breite: 54-55N, Länge: 008-21E, Höhe: 16 m

Beobachtung

Neuester Wetterbericht von vor 38 Minuten, um 05:50 UTC
Wind 3 kt aus West
Temperatur 1°C
Luftfeuchtigkeit 100%
Luftdruck 1036 hPa
Sichtweite: 1100 m

METAR: EDXW 010550Z AUTO 28003KT 1100 R32/1200U // VV/// 01/01 Q1036

Zeit: 07:28 (06:28 UTC)

Prognose

Neuester Wetterbericht von vor 16 Stunden und 28 Minuten, um 14:00 UTC
Gültige Prognose vom 28 um 15 UTC bis 28 um 18 UTC
Wind 10 kt aus West/Nordwest
Sichtweite 10 km oder mehr
keine Wolken unter 1500 m und keine Kumulonimbus oder Gewitterwolken
Übergehend zu
vom 28 um 15 UTC bis 28 um 18 UTC
Sichtweite: 0300 m
Geschlossene Wolkendecke in der Höhe von 100 ft
Nebel

TAF: EDXW 281400Z 2815/2818 30010KT CAVOK BECMG 2815/2818 0300 FG OVC001

Wetterbeobachtungen und Prognosen von mehr als 4000 Flughäfen (METAR und TAF Bericht).

Die verfügbaren Stationen werden durch gelbe und rote Markierungen auf der Karte dargestellt.

Führen Sie die Maus auf sie, um den Namen der Station zu sehen.

Darauf klicken, um die Beobachtung von Wetterbeobachtungen und Prognosen zu sehen.

Um die Karte zu ändern : klicken Sie auf den grünen Tasten mit einem schwarzen Kreuz Zum Vergrößern, auf den grünen Button mit einem Gedankenstrich zu verkleinern, oder auf die grünen Pfeile für benachbarte Karten.


METAR-TAF: